Time;durP1;ratioP1;P1;durP2;ratioP2;P2;SDS_P1;SDS_P2;PMS_P1;PMS_P2;Temp;Humidity;BMP_temperature;BMP_pressure;BME280_temperature;BME280_humidity;BME280_pressure;Samples;Min_cycle;Max_cycle;Signal;HPM_P1;HPM_P2
2024/01/09 00:00:37;;;;;;;;;;;-8.50;100.00;;;;;;6208740;23;19923;-71
2024/01/09 00:03:04;;;;;;;;;;;-8.50;100.00;;;;;;6235490;23;20524;-71
2024/01/09 00:05:31;;;;;;;;;;;-8.50;100.00;;;;;;6234700;23;19923;-72
2024/01/09 00:07:58;;;;;;;;;;;-8.60;100.00;;;;;;6235264;23;19926;-72
2024/01/09 00:10:25;;;;;;;;;;;-8.60;100.00;;;;;;6235358;23;19919;-71
2024/01/09 00:12:52;;;;;;;;;;;-8.60;100.00;;;;;;6235429;23;20290;-71
2024/01/09 00:15:19;;;;;;;;;;;-8.70;100.00;;;;;;6236062;23;19916;-71
2024/01/09 00:17:46;;;;;;;;;;;-8.70;100.00;;;;;;6235680;23;19915;-71
2024/01/09 00:20:12;;;;;;;;;;;-8.80;100.00;;;;;;6235165;23;19946;-71
2024/01/09 00:22:41;;;;;;;;;;;-8.90;100.00;;;;;;6234830;23;19992;-71
2024/01/09 00:25:08;;;;;;;;;;;-8.90;100.00;;;;;;6208247;23;20311;-71
2024/01/09 00:27:35;;;;;;;;;;;-8.90;100.00;;;;;;6208531;23;19919;-72
2024/01/09 00:30:02;;;;;;;;;;;-8.90;100.00;;;;;;6234922;23;19919;-71
2024/01/09 00:32:29;;;;;;;;;;;-9.00;100.00;;;;;;6234358;23;19951;-71
2024/01/09 00:34:56;;;;;;;;;;;-9.00;100.00;;;;;;6208257;23;19923;-71
2024/01/09 00:37:23;;;;;;;;;;;-9.00;100.00;;;;;;6235580;23;19970;-71
2024/01/09 00:39:52;;;;;;;;;;;-9.00;100.00;;;;;;6235372;23;19935;-71
2024/01/09 00:42:19;;;;;;;;;;;-9.00;100.00;;;;;;6235171;23;19919;-72
2024/01/09 00:44:46;;;;;;;;;;;-9.00;100.00;;;;;;6234458;23;19931;-71
2024/01/09 00:47:13;;;;;;;;;;;-9.00;100.00;;;;;;6234858;23;19923;-71
2024/01/09 00:49:40;;;;;;;;;;;-8.90;100.00;;;;;;6234764;23;19949;-71
2024/01/09 00:52:07;;;;;;;;;;;-8.90;100.00;;;;;;6235046;23;20018;-72
2024/01/09 00:54:34;;;;;;;;;;;-8.90;100.00;;;;;;6234814;23;19915;-71
2024/01/09 00:57:00;;;;;;;;;;;-8.90;100.00;;;;;;6208845;23;19916;-72
2024/01/09 00:59:27;;;;;;;;;;;-8.90;100.00;;;;;;6208848;23;19919;-72
2024/01/09 01:01:54;;;;;;;;;;;-9.00;100.00;;;;;;6234795;23;19925;-71
2024/01/09 01:04:21;;;;;;;;;;;-9.00;100.00;;;;;;6235510;23;19920;-72
2024/01/09 01:06:47;;;;;;;;;;;-9.00;100.00;;;;;;6207850;23;19986;-72
2024/01/09 01:09:14;;;;;;;;;;;-9.10;100.00;;;;;;6235371;23;19923;-72
2024/01/09 01:11:41;;;;;;;;;;;-9.10;100.00;;;;;;6234695;23;19939;-72
2024/01/09 01:14:08;;;;;;;;;;;-9.00;100.00;;;;;;6207880;23;19924;-72
2024/01/09 01:16:35;;;;;;;;;;;-9.00;100.00;;;;;;6233716;23;20378;-72
2024/01/09 01:19:01;;;;;;;;;;;-9.00;100.00;;;;;;6235004;23;19975;-72
2024/01/09 01:21:28;;;;;;;;;;;-9.10;100.00;;;;;;6209348;23;19930;-72
2024/01/09 01:23:55;;;;;;;;;;;-9.10;100.00;;;;;;6235190;23;19924;-72
2024/01/09 01:26:23;;;;;;;;;;;-9.10;100.00;;;;;;6234652;23;19954;-72
2024/01/09 01:28:50;;;;;;;;;;;-9.20;100.00;;;;;;6207633;23;20296;-72
2024/01/09 01:31:17;;;;;;;;;;;-9.20;100.00;;;;;;6207460;23;19981;-72
2024/01/09 01:33:43;;;;;;;;;;;-9.30;100.00;;;;;;6233477;23;19919;-72
2024/01/09 01:36:16;;;;;;;;;;;-9.30;100.00;;;;;;6233554;23;20558;-72
2024/01/09 01:38:43;;;;;;;;;;;-9.40;100.00;;;;;;6207252;23;19919;-72
2024/01/09 01:41:10;;;;;;;;;;;-9.30;100.00;;;;;;6234646;23;19919;-72
2024/01/09 01:43:37;;;;;;;;;;;-9.40;100.00;;;;;;6236501;23;19916;-67
2024/01/09 01:46:04;;;;;;;;;;;-9.40;100.00;;;;;;6234743;23;19961;-68
2024/01/09 01:48:31;;;;;;;;;;;-9.40;100.00;;;;;;6234163;23;19930;-67
2024/01/09 01:50:59;;;;;;;;;;;-9.40;100.00;;;;;;6235306;23;20404;-67
2024/01/09 01:53:26;;;;;;;;;;;-9.40;100.00;;;;;;6236077;23;20558;-67
2024/01/09 01:55:54;;;;;;;;;;;-9.40;100.00;;;;;;6235272;23;19919;-67
2024/01/09 01:58:20;;;;;;;;;;;-9.30;100.00;;;;;;6235772;23;19981;-67
2024/01/09 02:00:48;;;;;;;;;;;-9.40;100.00;;;;;;6235577;23;20485;-66
2024/01/09 02:03:15;;;;;;;;;;;-9.40;100.00;;;;;;6236600;23;19938;-66
2024/01/09 02:05:41;;;;;;;;;;;-9.40;100.00;;;;;;6236887;23;20009;-67
2024/01/09 02:08:09;;;;;;;;;;;-9.50;100.00;;;;;;6236665;23;19923;-66
2024/01/09 02:10:35;;;;;;;;;;;-9.50;100.00;;;;;;6236316;23;19947;-66
2024/01/09 02:13:02;;;;;;;;;;;-9.50;100.00;;;;;;6209888;23;20522;-66
2024/01/09 02:15:29;;;;;;;;;;;-9.50;100.00;;;;;;6209782;23;19954;-66
2024/01/09 02:17:56;;;;;;;;;;;-9.50;100.00;;;;;;6209037;23;19919;-67
2024/01/09 02:20:23;;;;;;;;;;;-9.50;100.00;;;;;;6209273;23;20251;-66
2024/01/09 02:22:50;;;;;;;;;;;-9.50;100.00;;;;;;6236734;23;20201;-67
2024/01/09 02:25:16;;;;;;;;;;;-9.50;100.00;;;;;;6236294;23;19977;-67
2024/01/09 02:27:55;;;;;;;;;;;-9.50;100.00;;;;;;6210172;23;19919;-67
2024/01/09 02:30:22;;;;;;;;;;;-9.50;100.00;;;;;;6235803;23;19942;-66
2024/01/09 02:32:50;;;;;;;;;;;-9.50;100.00;;;;;;6236099;23;19919;-66
2024/01/09 02:35:17;;;;;;;;;;;-9.60;100.00;;;;;;6236538;23;19923;-67
2024/01/09 02:37:44;;;;;;;;;;;-9.60;100.00;;;;;;6235557;23;19920;-66
2024/01/09 02:40:11;;;;;;;;;;;-9.60;100.00;;;;;;6235660;23;20276;-67
2024/01/09 02:42:37;;;;;;;;;;;-9.60;100.00;;;;;;6236057;23;19985;-67
2024/01/09 02:45:04;;;;;;;;;;;-9.60;100.00;;;;;;6209496;23;19920;-67
2024/01/09 02:47:31;;;;;;;;;;;-9.60;100.00;;;;;;6236091;23;19919;-67
2024/01/09 02:49:58;;;;;;;;;;;-9.60;100.00;;;;;;6236914;23;19943;-67
2024/01/09 02:52:25;;;;;;;;;;;-9.60;100.00;;;;;;6236249;23;19920;-67
2024/01/09 02:54:52;;;;;;;;;;;-9.70;100.00;;;;;;6236417;23;19925;-67
2024/01/09 02:57:19;;;;;;;;;;;-9.70;100.00;;;;;;6236267;23;19939;-67
2024/01/09 02:59:45;;;;;;;;;;;-9.70;100.00;;;;;;6236247;23;20803;-67
2024/01/09 03:02:12;;;;;;;;;;;-9.80;100.00;;;;;;6235108;23;19922;-67
2024/01/09 03:04:39;;;;;;;;;;;-9.80;100.00;;;;;;6209811;23;19922;-67
2024/01/09 03:07:06;;;;;;;;;;;-9.90;100.00;;;;;;6236119;23;19919;-67
2024/01/09 03:09:33;;;;;;;;;;;-9.90;100.00;;;;;;6209028;23;20351;-67
2024/01/09 03:12:00;;;;;;;;;;;-9.90;100.00;;;;;;6208873;23;19923;-67
2024/01/09 03:14:27;;;;;;;;;;;-9.90;100.00;;;;;;6236202;23;19955;-67
2024/01/09 03:16:53;;;;;;;;;;;-10.00;100.00;;;;;;6236630;23;19915;-67
2024/01/09 03:19:20;;;;;;;;;;;-9.90;100.00;;;;;;6235766;23;19919;-66
2024/01/09 03:21:48;;;;;;;;;;;-9.90;100.00;;;;;;6208656;23;20379;-66
2024/01/09 03:24:15;;;;;;;;;;;-10.00;100.00;;;;;;6208437;23;19973;-67
2024/01/09 03:26:42;;;;;;;;;;;-10.00;100.00;;;;;;6235461;23;20402;-67
2024/01/09 03:29:09;;;;;;;;;;;-10.00;100.00;;;;;;6236156;23;20039;-67
2024/01/09 03:31:36;;;;;;;;;;;-10.00;100.00;;;;;;6208958;23;19987;-67
2024/01/09 03:34:03;;;;;;;;;;;-9.90;100.00;;;;;;6235682;23;20003;-67
2024/01/09 03:36:31;;;;;;;;;;;-9.90;100.00;;;;;;6208499;23;19930;-67
2024/01/09 03:38:58;;;;;;;;;;;-9.80;100.00;;;;;;6234678;23;19919;-67
2024/01/09 03:41:25;;;;;;;;;;;-9.80;100.00;;;;;;6235663;23;20339;-67
2024/01/09 03:43:52;;;;;;;;;;;-9.80;100.00;;;;;;6209274;23;19926;-67
2024/01/09 03:46:18;;;;;;;;;;;-9.80;100.00;;;;;;6234922;23;19977;-67
2024/01/09 03:48:45;;;;;;;;;;;-9.80;100.00;;;;;;6236295;23;19919;-67
2024/01/09 03:51:12;;;;;;;;;;;-9.80;100.00;;;;;;6235462;23;19919;-67
2024/01/09 03:53:39;;;;;;;;;;;-9.80;100.00;;;;;;6235755;23;19969;-67
2024/01/09 03:56:05;;;;;;;;;;;-9.80;100.00;;;;;;6235085;23;19927;-67
2024/01/09 03:58:32;;;;;;;;;;;-9.80;100.00;;;;;;6235552;23;20230;-67
2024/01/09 04:00:59;;;;;;;;;;;-9.80;100.00;;;;;;6206777;23;19919;-67
2024/01/09 04:03:26;;;;;;;;;;;-9.70;100.00;;;;;;6233455;23;19920;-68
2024/01/09 04:06:02;;;;;;;;;;;-9.70;100.00;;;;;;6235866;23;19923;-66
2024/01/09 04:08:29;;;;;;;;;;;-9.80;100.00;;;;;;6234792;23;19927;-72
2024/01/09 04:10:56;;;;;;;;;;;-9.80;100.00;;;;;;6234835;23;20720;-72
2024/01/09 04:13:23;;;;;;;;;;;-9.80;100.00;;;;;;6234598;23;19919;-72
2024/01/09 04:15:49;;;;;;;;;;;-9.80;100.00;;;;;;6234307;23;19981;-72
2024/01/09 04:18:16;;;;;;;;;;;-9.80;100.00;;;;;;6208259;23;19920;-72
2024/01/09 04:20:43;;;;;;;;;;;-9.80;100.00;;;;;;6209012;23;20294;-72
2024/01/09 04:23:10;;;;;;;;;;;-9.80;100.00;;;;;;6234547;23;19942;-73
2024/01/09 04:25:37;;;;;;;;;;;-9.90;100.00;;;;;;6234127;23;19942;-72
2024/01/09 04:28:04;;;;;;;;;;;-9.90;100.00;;;;;;6208031;23;19923;-72
2024/01/09 04:30:31;;;;;;;;;;;-9.90;100.00;;;;;;6234654;23;19919;-72
2024/01/09 04:32:57;;;;;;;;;;;-9.90;100.00;;;;;;6207344;23;19919;-73
2024/01/09 04:35:25;;;;;;;;;;;-9.90;100.00;;;;;;6207878;23;19920;-73
2024/01/09 04:37:51;;;;;;;;;;;-9.90;100.00;;;;;;6234309;23;19923;-73
2024/01/09 04:40:18;;;;;;;;;;;-9.90;100.00;;;;;;6208101;23;19919;-72
2024/01/09 04:42:45;;;;;;;;;;;-9.90;100.00;;;;;;6234593;23;20590;-72
2024/01/09 04:45:12;;;;;;;;;;;-9.80;100.00;;;;;;6234669;23;20504;-72
2024/01/09 04:47:38;;;;;;;;;;;-9.80;100.00;;;;;;6235171;23;19922;-72
2024/01/09 04:50:06;;;;;;;;;;;-9.70;100.00;;;;;;6234543;23;19959;-72
2024/01/09 04:52:34;;;;;;;;;;;-9.70;100.00;;;;;;6234926;23;19926;-72
2024/01/09 04:55:01;;;;;;;;;;;-9.60;100.00;;;;;;6235162;23;19931;-73
2024/01/09 04:57:28;;;;;;;;;;;-9.60;100.00;;;;;;6235506;23;19973;-67
2024/01/09 04:59:54;;;;;;;;;;;-9.60;100.00;;;;;;6235189;23;19946;-67
2024/01/09 05:02:21;;;;;;;;;;;-9.60;100.00;;;;;;6234881;23;20341;-67
2024/01/09 05:04:48;;;;;;;;;;;-9.50;100.00;;;;;;6235205;23;19931;-67
2024/01/09 05:07:15;;;;;;;;;;;-9.50;100.00;;;;;;6234827;23;19923;-67
2024/01/09 05:09:41;;;;;;;;;;;-9.40;100.00;;;;;;6235317;23;20305;-67
2024/01/09 05:12:08;;;;;;;;;;;-9.50;100.00;;;;;;6207957;23;19941;-67
2024/01/09 05:14:35;;;;;;;;;;;-9.40;100.00;;;;;;6210241;23;19919;-67
2024/01/09 05:17:02;;;;;;;;;;;-9.40;100.00;;;;;;6235103;23;19920;-67
2024/01/09 05:19:29;;;;;;;;;;;-9.40;100.00;;;;;;6233593;23;19961;-67
2024/01/09 05:21:56;;;;;;;;;;;-9.40;100.00;;;;;;6234070;23;20345;-67
2024/01/09 05:24:22;;;;;;;;;;;-9.40;100.00;;;;;;6235648;23;19919;-67
2024/01/09 05:26:49;;;;;;;;;;;-9.50;100.00;;;;;;6236667;23;20430;-67
2024/01/09 05:29:16;;;;;;;;;;;-9.50;100.00;;;;;;6236827;23;19978;-67
2024/01/09 05:31:43;;;;;;;;;;;-9.50;100.00;;;;;;6209850;23;19927;-67
2024/01/09 05:34:10;;;;;;;;;;;-9.50;100.00;;;;;;6236463;23;19942;-67
2024/01/09 05:36:37;;;;;;;;;;;-9.50;100.00;;;;;;6238874;23;19919;-72
2024/01/09 05:39:04;;;;;;;;;;;-9.40;100.00;;;;;;6236985;23;19923;-72
2024/01/09 05:41:31;;;;;;;;;;;-9.40;100.00;;;;;;6236965;23;20004;-72
2024/01/09 05:43:58;;;;;;;;;;;-9.40;100.00;;;;;;6208776;23;19923;-72
2024/01/09 05:46:24;;;;;;;;;;;-9.40;100.00;;;;;;6234892;23;19959;-72
2024/01/09 05:48:51;;;;;;;;;;;-9.40;100.00;;;;;;6234723;23;19923;-73
2024/01/09 05:51:18;;;;;;;;;;;-9.50;100.00;;;;;;6207753;23;20503;-73
2024/01/09 05:53:47;;;;;;;;;;;-9.50;100.00;;;;;;6235379;23;19923;-73
2024/01/09 05:56:17;;;;;;;;;;;-9.50;100.00;;;;;;6235072;23;19927;-73
2024/01/09 05:58:44;;;;;;;;;;;-9.50;100.00;;;;;;6236070;23;20279;-72
2024/01/09 06:01:11;;;;;;;;;;;-9.50;100.00;;;;;;6236159;23;20607;-73
2024/01/09 06:03:38;;;;;;;;;;;-9.50;100.00;;;;;;6235487;23;19919;-73
2024/01/09 06:06:04;;;;;;;;;;;-9.50;100.00;;;;;;6236230;23;20018;-74
2024/01/09 06:08:31;;;;;;;;;;;-9.50;100.00;;;;;;6236930;23;19931;-72
2024/01/09 06:10:58;;;;;;;;;;;-9.60;100.00;;;;;;6236680;23;20026;-71
2024/01/09 06:13:25;;;;;;;;;;;-9.60;100.00;;;;;;6236445;23;19919;-72
2024/01/09 06:15:52;;;;;;;;;;;-9.50;100.00;;;;;;6236269;23;19973;-71
2024/01/09 06:18:19;;;;;;;;;;;-9.60;100.00;;;;;;6237254;23;19923;-72
2024/01/09 06:20:46;;;;;;;;;;;-9.50;100.00;;;;;;6236715;23;19919;-72
2024/01/09 06:23:13;;;;;;;;;;;-9.50;100.00;;;;;;6236199;23;19967;-71
2024/01/09 06:25:40;;;;;;;;;;;-9.50;100.00;;;;;;6236500;23;19987;-72
2024/01/09 06:28:07;;;;;;;;;;;-9.50;100.00;;;;;;6210194;23;19953;-71
2024/01/09 06:30:37;;;;;;;;;;;-9.40;100.00;;;;;;6209615;23;19919;-72
2024/01/09 06:33:03;;;;;;;;;;;-9.40;100.00;;;;;;6236070;23;19923;-71
2024/01/09 06:35:31;;;;;;;;;;;-9.50;100.00;;;;;;6232453;23;20412;-71
2024/01/09 06:37:57;;;;;;;;;;;-9.50;100.00;;;;;;6233468;23;20336;-74
2024/01/09 06:40:24;;;;;;;;;;;-9.50;100.00;;;;;;6235742;23;19926;-72
2024/01/09 06:42:51;;;;;;;;;;;-9.40;100.00;;;;;;6209331;23;19919;-72
2024/01/09 06:45:18;;;;;;;;;;;-9.40;100.00;;;;;;6232064;23;19927;-71
2024/01/09 06:47:45;;;;;;;;;;;-9.50;100.00;;;;;;6232128;23;20421;-71
2024/01/09 06:50:12;;;;;;;;;;;-9.40;100.00;;;;;;6234449;23;20511;-71
2024/01/09 06:52:56;;;;;;;;;;;-9.30;100.00;;;;;;6235646;23;20673;-70
2024/01/09 06:55:22;;;;;;;;;;;-9.40;100.00;;;;;;6209812;23;19920;-70
2024/01/09 06:57:49;;;;;;;;;;;-9.40;100.00;;;;;;6236368;23;19927;-70
2024/01/09 07:00:18;;;;;;;;;;;-9.40;100.00;;;;;;6236066;23;20663;-71
2024/01/09 07:02:45;;;;;;;;;;;-9.30;100.00;;;;;;6209618;23;19919;-71
2024/01/09 07:05:12;;;;;;;;;;;-9.30;100.00;;;;;;6236245;23;19986;-70
2024/01/09 07:07:40;;;;;;;;;;;-9.20;100.00;;;;;;6209529;23;19919;-65
2024/01/09 07:10:16;;;;;;;;;;;-9.20;100.00;;;;;;6235465;23;19920;-64
2024/01/09 07:12:43;;;;;;;;;;;-9.20;100.00;;;;;;6236867;23;20009;-65
2024/01/09 07:15:13;;;;;;;;;;;-9.10;100.00;;;;;;6236316;23;20384;-65
2024/01/09 07:17:41;;;;;;;;;;;-9.30;100.00;;;;;;6239869;22;19920;-70
2024/01/09 07:20:09;;;;;;;;;;;-9.40;100.00;;;;;;6235585;23;20236;-71
2024/01/09 07:22:35;;;;;;;;;;;-9.40;100.00;;;;;;6209195;23;20253;-70
2024/01/09 07:25:03;;;;;;;;;;;-9.40;100.00;;;;;;6236221;23;19966;-71
2024/01/09 07:27:30;;;;;;;;;;;-9.40;100.00;;;;;;6235956;23;20313;-71
2024/01/09 07:29:56;;;;;;;;;;;-9.50;100.00;;;;;;6235887;23;19962;-70
2024/01/09 07:32:23;;;;;;;;;;;-9.40;100.00;;;;;;6208736;23;20249;-65
2024/01/09 07:34:50;;;;;;;;;;;-9.40;100.00;;;;;;6236138;23;19923;-65
2024/01/09 07:37:22;;;;;;;;;;;-9.40;100.00;;;;;;6236116;23;19919;-64
2024/01/09 07:39:49;;;;;;;;;;;-9.30;100.00;;;;;;6236070;23;19919;-65
2024/01/09 07:42:17;;;;;;;;;;;-9.40;100.00;;;;;;6235174;23;19919;-65
2024/01/09 07:44:43;;;;;;;;;;;-9.40;100.00;;;;;;6235485;23;19930;-65
2024/01/09 07:47:11;;;;;;;;;;;-9.40;100.00;;;;;;6235478;23;19919;-65
2024/01/09 07:49:38;;;;;;;;;;;-9.50;100.00;;;;;;6236127;23;19927;-64
2024/01/09 07:52:05;;;;;;;;;;;-9.40;100.00;;;;;;6236084;23;19924;-65
2024/01/09 07:54:32;;;;;;;;;;;-9.40;100.00;;;;;;6235009;23;19924;-65
2024/01/09 07:56:59;;;;;;;;;;;-9.40;100.00;;;;;;6236103;23;20570;-71
2024/01/09 07:59:26;;;;;;;;;;;-9.40;100.00;;;;;;6235592;23;19965;-71
2024/01/09 08:01:54;;;;;;;;;;;-9.40;100.00;;;;;;6235779;23;20507;-70
2024/01/09 08:04:22;;;;;;;;;;;-9.40;100.00;;;;;;6235882;23;19982;-70
2024/01/09 08:06:52;;;;;;;;;;;-9.40;100.00;;;;;;6235494;23;19923;-64
2024/01/09 08:09:19;;;;;;;;;;;-9.40;100.00;;;;;;6235686;23;19942;-65
2024/01/09 08:11:46;;;;;;;;;;;-9.40;100.00;;;;;;6235828;23;20722;-64
2024/01/09 08:14:14;;;;;;;;;;;-9.40;100.00;;;;;;6235700;23;19920;-65
2024/01/09 08:16:41;;;;;;;;;;;-9.30;100.00;;;;;;6235775;23;19919;-65
2024/01/09 08:19:08;;;;;;;;;;;-9.10;100.00;;;;;;6235719;23;20389;-65
2024/01/09 08:21:35;;;;;;;;;;;-9.10;100.00;;;;;;6234710;23;19927;-67
2024/01/09 08:24:06;;;;;;;;;;;-9.10;100.00;;;;;;6235394;23;19920;-64
2024/01/09 08:26:33;;;;;;;;;;;-9.20;100.00;;;;;;6233703;23;19919;-65
2024/01/09 08:29:01;;;;;;;;;;;-9.10;100.00;;;;;;6235262;23;19919;-65
2024/01/09 08:31:28;;;;;;;;;;;-9.10;100.00;;;;;;6235848;23;19927;-65
2024/01/09 08:33:55;;;;;;;;;;;-9.10;100.00;;;;;;6236745;23;20260;-64
2024/01/09 08:36:22;;;;;;;;;;;-9.00;100.00;;;;;;6236795;23;19919;-64
2024/01/09 08:38:49;;;;;;;;;;;-9.00;100.00;;;;;;6235911;23;19927;-65
2024/01/09 08:41:17;;;;;;;;;;;-9.00;100.00;;;;;;6235993;23;19919;-64
2024/01/09 08:43:44;;;;;;;;;;;-9.00;100.00;;;;;;6236513;23;20299;-65
2024/01/09 08:46:11;;;;;;;;;;;-9.00;100.00;;;;;;6235605;23;19923;-65
2024/01/09 08:48:38;;;;;;;;;;;-8.90;100.00;;;;;;6235279;23;19950;-65
2024/01/09 08:51:05;;;;;;;;;;;-8.90;100.00;;;;;;6208664;23;19924;-64
2024/01/09 08:53:41;;;;;;;;;;;-8.80;100.00;;;;;;6235603;23;19919;-65
2024/01/09 08:56:08;;;;;;;;;;;-8.80;100.00;;;;;;6235750;23;20036;-64
2024/01/09 08:58:35;;;;;;;;;;;-8.80;100.00;;;;;;6234924;23;19927;-65
2024/01/09 09:01:03;;;;;;;;;;;-8.70;100.00;;;;;;6208985;23;19920;-65
2024/01/09 09:03:30;;;;;;;;;;;-8.60;100.00;;;;;;6208105;23;20434;-64
2024/01/09 09:05:57;;;;;;;;;;;-8.60;100.00;;;;;;6209084;23;19927;-65
2024/01/09 09:08:25;;;;;;;;;;;-8.60;100.00;;;;;;6235261;23;19943;-64
2024/01/09 09:10:52;;;;;;;;;;;-8.60;100.00;;;;;;6234847;23;19919;-65
2024/01/09 09:13:19;;;;;;;;;;;-8.40;100.00;;;;;;6234645;23;19920;-64
2024/01/09 09:15:46;;;;;;;;;;;-8.40;100.00;;;;;;6233976;23;19919;-65
2024/01/09 09:18:13;;;;;;;;;;;-8.20;100.00;;;;;;6207624;23;19919;-65
2024/01/09 09:20:40;;;;;;;;;;;-8.10;100.00;;;;;;6235127;23;19929;-64
2024/01/09 09:23:07;;;;;;;;;;;-7.90;100.00;;;;;;6234563;23;20026;-65
2024/01/09 09:25:37;;;;;;;;;;;-7.90;100.00;;;;;;6234858;23;19934;-65
2024/01/09 09:28:04;;;;;;;;;;;-7.80;100.00;;;;;;6234305;23;20539;-64
2024/01/09 09:30:32;;;;;;;;;;;-7.70;100.00;;;;;;6234495;23;20002;-65
2024/01/09 09:32:59;;;;;;;;;;;-7.60;100.00;;;;;;6234365;23;19919;-65
2024/01/09 09:35:26;;;;;;;;;;;-7.60;100.00;;;;;;6234781;23;20570;-65
2024/01/09 09:37:53;;;;;;;;;;;-7.60;100.00;;;;;;6234778;23;20006;-64
2024/01/09 09:40:20;;;;;;;;;;;-7.60;100.00;;;;;;6235300;23;19919;-65
2024/01/09 09:42:55;;;;;;;;;;;-7.50;100.00;;;;;;6234679;23;19920;-65
2024/01/09 09:45:24;;;;;;;;;;;-7.50;100.00;;;;;;6208070;23;19933;-65
2024/01/09 09:47:55;;;;;;;;;;;-7.50;100.00;;;;;;6235380;23;19926;-65
2024/01/09 09:50:23;;;;;;;;;;;-7.50;100.00;;;;;;6207688;23;20602;-65
2024/01/09 09:52:49;;;;;;;;;;;-7.40;100.00;;;;;;6207572;23;20388;-65
2024/01/09 09:55:17;;;;;;;;;;;-7.40;100.00;;;;;;6235024;23;19920;-65
2024/01/09 09:57:44;;;;;;;;;;;-7.30;100.00;;;;;;6234201;23;19993;-65
2024/01/09 10:00:11;;;;;;;;;;;-7.20;100.00;;;;;;6207920;23;20383;-65
2024/01/09 10:02:44;;;;;;;;;;;-7.20;100.00;;;;;;6207357;23;19981;-65
2024/01/09 10:05:13;;;;;;;;;;;-7.20;100.00;;;;;;6207847;23;19926;-65
2024/01/09 10:07:43;;;;;;;;;;;-7.10;100.00;;;;;;6234420;23;20434;-65
2024/01/09 10:10:14;;;;;;;;;;;-7.00;100.00;;;;;;6235773;23;19923;-65
2024/01/09 10:12:41;;;;;;;;;;;-6.90;100.00;;;;;;6236900;23;20466;-65
2024/01/09 10:15:08;;;;;;;;;;;-6.70;100.00;;;;;;6236850;23;19969;-70
2024/01/09 10:17:36;;;;;;;;;;;-6.60;100.00;;;;;;6236418;23;19924;-70
2024/01/09 10:20:04;;;;;;;;;;;-6.20;100.00;;;;;;6236659;23;19915;-71
2024/01/09 10:22:35;;;;;;;;;;;-5.70;100.00;;;;;;6208674;23;20004;-71
2024/01/09 10:25:06;;;;;;;;;;;-5.20;100.00;;;;;;6235989;23;19926;-70
2024/01/09 10:27:34;;;;;;;;;;;-5.30;100.00;;;;;;6235543;23;19919;-71
2024/01/09 10:30:02;;;;;;;;;;;-5.30;100.00;;;;;;6235275;23;20000;-71
2024/01/09 10:32:31;;;;;;;;;;;-5.30;100.00;;;;;;6236675;23;19920;-71
2024/01/09 10:34:58;;;;;;;;;;;-5.10;100.00;;;;;;6236696;23;20590;-70
2024/01/09 10:37:25;;;;;;;;;;;-4.90;100.00;;;;;;6236822;23;19923;-70
2024/01/09 10:39:52;;;;;;;;;;;-4.80;100.00;;;;;;6237050;23;19920;-70
2024/01/09 10:42:19;;;;;;;;;;;-4.60;100.00;;;;;;6236775;23;19965;-70
2024/01/09 10:44:47;;;;;;;;;;;-4.50;100.00;;;;;;6236642;23;19919;-71
2024/01/09 10:47:14;;;;;;;;;;;-4.40;100.00;;;;;;6209917;23;19927;-70
2024/01/09 10:49:42;;;;;;;;;;;-4.40;100.00;;;;;;6236905;23;19969;-70
2024/01/09 10:52:13;;;;;;;;;;;-4.40;100.00;;;;;;6210106;23;19916;-70
2024/01/09 10:54:41;;;;;;;;;;;-4.30;100.00;;;;;;6236253;23;20564;-70
2024/01/09 10:57:10;;;;;;;;;;;-4.00;100.00;;;;;;6236316;23;19927;-70
2024/01/09 10:59:38;;;;;;;;;;;-3.80;100.00;;;;;;6236418;23;19923;-70
2024/01/09 11:02:07;;;;;;;;;;;-3.50;100.00;;;;;;6237568;23;20002;-71
2024/01/09 11:04:34;;;;;;;;;;;-3.40;100.00;;;;;;6237302;23;19925;-70
2024/01/09 11:07:02;;;;;;;;;;;-3.10;100.00;;;;;;6236459;23;19985;-71
2024/01/09 11:09:30;;;;;;;;;;;-3.10;100.00;;;;;;6236920;23;19965;-71
2024/01/09 11:11:57;;;;;;;;;;;-3.00;100.00;;;;;;6236676;23;19947;-71
2024/01/09 11:14:24;;;;;;;;;;;-2.90;100.00;;;;;;6236648;23;19962;-71
2024/01/09 11:16:53;;;;;;;;;;;-2.80;100.00;;;;;;6236642;23;19927;-71
2024/01/09 11:19:20;;;;;;;;;;;-2.70;100.00;;;;;;6236284;23;19926;-71
2024/01/09 11:21:47;;;;;;;;;;;-2.50;100.00;;;;;;6208868;23;19931;-71
2024/01/09 11:24:13;;;;;;;;;;;-2.40;100.00;;;;;;6234845;23;19919;-70
2024/01/09 11:26:42;;;;;;;;;;;-2.30;100.00;;;;;;6209335;23;19919;-71
2024/01/09 11:29:09;;;;;;;;;;;-2.20;100.00;;;;;;6236292;23;19916;-71
2024/01/09 11:31:36;;;;;;;;;;;-2.10;100.00;;;;;;6236312;23;19919;-70
2024/01/09 11:34:02;;;;;;;;;;;-2.10;100.00;;;;;;6235772;23;20378;-71
2024/01/09 11:36:33;;;;;;;;;;;-2.10;100.00;;;;;;6210007;23;19920;-70
2024/01/09 11:39:00;;;;;;;;;;;-2.00;100.00;;;;;;6236363;23;20279;-71
2024/01/09 11:41:35;;;;;;;;;;;-1.90;100.00;;;;;;6209709;23;19916;-70
2024/01/09 11:44:06;;;;;;;;;;;-2.00;100.00;;;;;;6235575;23;19919;-71
2024/01/09 11:46:37;;;;;;;;;;;-1.90;100.00;;;;;;6207809;23;19919;-65
2024/01/09 11:49:05;;;;;;;;;;;-1.80;100.00;;;;;;6236384;23;19919;-65
2024/01/09 11:51:33;;;;;;;;;;;-1.70;100.00;;;;;;6236229;23;19920;-65
2024/01/09 11:54:01;;;;;;;;;;;-1.60;100.00;;;;;;6236221;23;20333;-65
2024/01/09 11:56:29;;;;;;;;;;;-1.50;100.00;;;;;;6236159;23;20425;-65
2024/01/09 11:58:57;;;;;;;;;;;-1.30;100.00;;;;;;6236538;23;19919;-66
2024/01/09 12:01:24;;;;;;;;;;;-1.20;100.00;;;;;;6234523;23;19919;-66
2024/01/09 12:03:52;;;;;;;;;;;-1.20;100.00;;;;;;6236267;23;19927;-66
2024/01/09 12:06:20;;;;;;;;;;;-1.10;100.00;;;;;;6236184;23;19919;-66
2024/01/09 12:08:47;;;;;;;;;;;-1.00;100.00;;;;;;6236298;23;19998;-66
2024/01/09 12:11:15;;;;;;;;;;;-1.10;100.00;;;;;;6210470;23;20406;-66
2024/01/09 12:13:43;;;;;;;;;;;-1.20;100.00;;;;;;6236441;23;19916;-66
2024/01/09 12:16:14;;;;;;;;;;;-1.20;100.00;;;;;;6235185;23;19923;-66
2024/01/09 12:18:47;;;;;;;;;;;-1.40;100.00;;;;;;6235918;23;19923;-66
2024/01/09 12:21:15;;;;;;;;;;;-1.40;100.00;;;;;;6209215;23;20241;-64
2024/01/09 12:23:42;;;;;;;;;;;-1.40;100.00;;;;;;6209193;23;19947;-66
2024/01/09 12:26:29;;;;;;;;;;;-1.30;100.00;;;;;;6212166;23;20312;-64
2024/01/09 12:28:57;;;;;;;;;;;-1.40;100.00;;;;;;6235087;23;19931;-65
2024/01/09 12:31:24;;;;;;;;;;;-1.40;100.00;;;;;;6233432;23;20017;-66
2024/01/09 12:33:53;;;;;;;;;;;-1.40;100.00;;;;;;6234395;23;20496;-65
2024/01/09 12:36:20;;;;;;;;;;;-1.40;100.00;;;;;;6236659;23;20007;-66
2024/01/09 12:38:47;;;;;;;;;;;-1.50;100.00;;;;;;6236051;23;19923;-65
2024/01/09 12:41:19;;;;;;;;;;;-1.60;100.00;;;;;;6236761;23;19919;-65
2024/01/09 12:43:46;;;;;;;;;;;-1.60;100.00;;;;;;6235307;23;19997;-65
2024/01/09 12:46:12;;;;;;;;;;;-1.60;100.00;;;;;;6209678;23;20395;-65
2024/01/09 12:48:42;;;;;;;;;;;-1.50;100.00;;;;;;6205957;23;19920;-65
2024/01/09 12:51:09;;;;;;;;;;;-1.60;100.00;;;;;;6237279;23;19950;-65
2024/01/09 12:53:36;;;;;;;;;;;-1.50;100.00;;;;;;6234247;23;20256;-65
2024/01/09 12:56:08;;;;;;;;;;;-1.60;100.00;;;;;;6233624;23;19930;-66
2024/01/09 12:58:36;;;;;;;;;;;-1.60;100.00;;;;;;6205895;23;19919;-65
2024/01/09 13:01:04;;;;;;;;;;;-1.70;100.00;;;;;;6234056;23;19923;-65
2024/01/09 13:03:32;;;;;;;;;;;-1.60;100.00;;;;;;6234130;23;19919;-65
2024/01/09 13:06:01;;;;;;;;;;;-1.70;100.00;;;;;;6207358;23;20010;-65
2024/01/09 13:08:29;;;;;;;;;;;-1.70;100.00;;;;;;6234687;23;19916;-65
2024/01/09 13:10:55;;;;;;;;;;;-1.60;100.00;;;;;;6207521;23;19943;-65
2024/01/09 13:13:22;;;;;;;;;;;-1.60;100.00;;;;;;6206983;23;19919;-65
2024/01/09 13:15:49;;;;;;;;;;;-1.70;100.00;;;;;;6237833;23;19974;-65
2024/01/09 13:18:17;;;;;;;;;;;-1.90;100.00;;;;;;6211860;23;20532;-65
2024/01/09 13:20:44;;;;;;;;;;;-1.80;100.00;;;;;;6208362;23;19926;-65
2024/01/09 13:23:11;;;;;;;;;;;-1.70;100.00;;;;;;6234276;23;19920;-67
2024/01/09 13:25:41;;;;;;;;;;;-1.70;100.00;;;;;;6233530;23;19919;-67
2024/01/09 13:28:08;;;;;;;;;;;-1.70;100.00;;;;;;6234090;23;19985;-65
2024/01/09 13:30:34;;;;;;;;;;;-1.70;100.00;;;;;;6233627;23;20467;-65
2024/01/09 13:33:17;;;;;;;;;;;-1.70;100.00;;;;;;6234558;23;19997;-65
2024/01/09 13:35:44;;;;;;;;;;;-1.60;100.00;;;;;;6207736;23;19920;-64
2024/01/09 13:38:10;;;;;;;;;;;-1.60;100.00;;;;;;6207431;23;19990;-65
2024/01/09 13:40:37;;;;;;;;;;;-1.60;100.00;;;;;;6234213;23;19926;-65
2024/01/09 13:43:04;;;;;;;;;;;-1.60;100.00;;;;;;6208171;23;19919;-64
2024/01/09 13:45:32;;;;;;;;;;;-1.70;100.00;;;;;;6212473;23;19970;-65
2024/01/09 13:48:01;;;;;;;;;;;-1.80;100.00;;;;;;6211399;23;19919;-65
2024/01/09 13:50:28;;;;;;;;;;;-1.70;100.00;;;;;;6236965;23;19926;-66
2024/01/09 13:53:15;;;;;;;;;;;-1.80;100.00;;;;;;6212940;23;20308;-64
2024/01/09 13:55:42;;;;;;;;;;;-1.80;100.00;;;;;;6236560;23;19950;-66
2024/01/09 13:58:09;;;;;;;;;;;-1.90;100.00;;;;;;6209308;23;20621;-65
2024/01/09 14:00:37;;;;;;;;;;;-2.00;100.00;;;;;;6209090;23;19960;-67
2024/01/09 14:03:05;;;;;;;;;;;-2.10;100.00;;;;;;6236563;23;19923;-64
2024/01/09 14:05:39;;;;;;;;;;;-2.00;100.00;;;;;;6209628;23;19919;-66